Time;durP1;ratioP1;P1;durP2;ratioP2;P2;SDS_P1;SDS_P2;PMS_P1;PMS_P2;Temp;Humidity;BMP_temperature;BMP_pressure;BME280_temperature;BME280_humidity;BME280_pressure;Samples;Min_cycle;Max_cycle;Signal;HPM_P1;HPM_P2
2022/03/30 00:01:14;;;;;;;38.25;15.73;;;;;;;;;;8328836;28;20053;-84
2022/03/30 00:05:17;;;;;;;38.90;16.63;;;;;;;;;;8323747;28;20045;-83
2022/03/30 00:09:20;;;;;;;47.20;17.90;;;;;;;;;;8329950;28;20052;-82
2022/03/30 00:13:23;;;;;;;37.58;16.25;;;;;;;;;;8330467;28;20052;-83
2022/03/30 00:17:25;;;;;;;40.83;16.00;;;;;;;;;;8330013;28;20042;-81
2022/03/30 00:21:29;;;;;;;;;;;;;;;;;;8330523;28;20053;-83
2022/03/30 00:25:31;;;;;;;39.88;14.85;;;;;;;;;;8336134;28;19921;-83
2022/03/30 00:29:34;;;;;;;39.67;16.38;;;;;;;;;;8336183;28;20049;-83
2022/03/30 00:33:37;;;;;;;38.92;16.17;;;;;;;;;;8336614;28;20049;-83
2022/03/30 00:37:41;;;;;;;;;;;;;;;;;;8323733;28;20053;-82
2022/03/30 00:41:44;;;;;;;43.30;16.13;;;;;;;;;;8329635;28;19979;-82
2022/03/30 00:45:46;;;;;;;40.33;16.70;;;;;;;;;;8330899;28;20101;-83
2022/03/30 00:49:49;;;;;;;51.10;19.33;;;;;;;;;;8324033;28;20041;-81
2022/03/30 00:53:53;;;;;;;46.33;17.40;;;;;;;;;;8325139;28;20068;-83
2022/03/30 00:57:58;;;;;;;50.00;19.25;;;;;;;;;;8326277;28;20057;-81
2022/03/30 01:02:01;;;;;;;39.72;16.30;;;;;;;;;;8333486;28;20053;-81
2022/03/30 01:06:07;;;;;;;46.60;19.17;;;;;;;;;;8333987;28;20045;-82
2022/03/30 01:10:19;;;;;;;;;;;;;;;;;;8317426;28;20049;-81
2022/03/30 01:14:23;;;;;;;39.60;15.63;;;;;;;;;;8332485;28;19932;-83
2022/03/30 01:18:25;;;;;;;43.55;16.95;;;;;;;;;;8333602;28;20033;-83
2022/03/30 01:22:29;;;;;;;46.75;18.67;;;;;;;;;;8318360;28;20503;-84
2022/03/30 01:26:32;;;;;;;42.90;17.70;;;;;;;;;;8328565;28;20045;-83
2022/03/30 01:34:55;;;;;;;45.33;17.75;;;;;;;;;;8328799;28;20067;-82
2022/03/30 01:38:59;;;;;;;44.45;17.67;;;;;;;;;;8326723;28;20080;-82
2022/03/30 01:43:02;;;;;;;40.90;17.15;;;;;;;;;;8323967;28;20041;-83
2022/03/30 01:47:05;;;;;;;47.85;17.33;;;;;;;;;;8332398;28;20046;-82
2022/03/30 01:51:08;;;;;;;40.33;16.05;;;;;;;;;;8324990;28;20053;-87
2022/03/30 01:55:12;;;;;;;46.30;16.90;;;;;;;;;;8329313;28;20045;-81
2022/03/30 01:59:15;;;;;;;44.70;18.83;;;;;;;;;;8318353;28;20099;-83
2022/03/30 02:03:18;;;;;;;46.83;17.02;;;;;;;;;;8331230;28;20073;-83
2022/03/30 02:07:21;;;;;;;41.55;17.02;;;;;;;;;;8330507;28;20091;-83
2022/03/30 02:11:26;;;;;;;46.72;16.98;;;;;;;;;;8335615;28;20060;-82
2022/03/30 02:15:29;;;;;;;48.13;18.45;;;;;;;;;;8332990;28;20045;-82
2022/03/30 02:19:32;;;;;;;41.75;17.20;;;;;;;;;;8332936;28;20389;-83
2022/03/30 02:23:34;;;;;;;43.13;17.73;;;;;;;;;;8332545;28;20147;-81
2022/03/30 02:27:39;;;;;;;42.50;17.88;;;;;;;;;;8332570;28;20128;-82
2022/03/30 02:31:42;;;;;;;43.55;16.65;;;;;;;;;;8332468;28;20046;-84
2022/03/30 02:35:45;;;;;;;44.40;16.75;;;;;;;;;;8332325;28;20050;-83
2022/03/30 02:39:48;;;;;;;44.08;18.20;;;;;;;;;;8333679;28;20056;-81
2022/03/30 02:43:52;;;;;;;43.75;17.88;;;;;;;;;;8329371;28;20045;-81
2022/03/30 02:52:13;;;;;;;42.28;19.10;;;;;;;;;;8321904;28;20054;-83
2022/03/30 02:56:16;;;;;;;;;;;;;;;;;;8365244;28;20044;-84
2022/03/30 03:00:21;;;;;;;45.35;16.73;;;;;;;;;;8365011;28;19921;-84
2022/03/30 03:04:24;;;;;;;38.97;17.38;;;;;;;;;;8347267;28;20465;-83
2022/03/30 03:08:27;;;;;;;42.88;15.50;;;;;;;;;;8331677;28;20061;-83
2022/03/30 03:12:29;;;;;;;56.13;22.05;;;;;;;;;;8331541;28;20512;-83
2022/03/30 03:16:33;;;;;;;54.65;22.92;;;;;;;;;;8331549;28;20042;-83
2022/03/30 03:20:36;;;;;;;44.17;17.25;;;;;;;;;;8331814;28;20460;-82
2022/03/30 03:24:39;;;;;;;37.35;15.45;;;;;;;;;;8331112;28;20057;-83
2022/03/30 03:28:41;;;;;;;40.03;17.05;;;;;;;;;;8331271;28;20057;-84
2022/03/30 03:32:45;;;;;;;39.03;16.38;;;;;;;;;;8326664;28;20052;-85
2022/03/30 03:36:48;;;;;;;42.17;17.70;;;;;;;;;;8334322;28;20049;-84
2022/03/30 03:40:50;;;;;;;44.35;17.70;;;;;;;;;;8332512;28;20042;-83
2022/03/30 03:44:53;;;;;;;40.92;17.08;;;;;;;;;;8331688;28;20128;-82
2022/03/30 03:48:58;;;;;;;43.80;17.73;;;;;;;;;;8332094;28;20045;-85
2022/03/30 03:53:01;;;;;;;38.60;15.55;;;;;;;;;;8330868;28;20053;-84
2022/03/30 03:57:04;;;;;;;61.10;24.20;;;;;;;;;;8330227;28;20049;-85
2022/03/30 04:01:07;;;;;;;115.13;43.05;;;;;;;;;;8330567;28;20052;-84
2022/03/30 04:05:13;;;;;;;86.32;35.58;;;;;;;;;;8330601;28;20412;-84
2022/03/30 04:09:16;;;;;;;45.13;19.20;;;;;;;;;;8330418;28;20413;-84
2022/03/30 04:13:19;;;;;;;46.00;17.15;;;;;;;;;;8330415;28;20045;-83
2022/03/30 04:17:21;;;;;;;42.40;17.80;;;;;;;;;;8330304;28;20049;-82
2022/03/30 04:21:25;;;;;;;37.20;18.50;;;;;;;;;;8330267;28;20053;-85
2022/03/30 04:25:28;;;;;;;43.67;19.88;;;;;;;;;;8330037;28;20057;-84
2022/03/30 04:29:31;;;;;;;40.67;18.50;;;;;;;;;;8330106;28;20057;-84
2022/03/30 04:33:34;;;;;;;42.33;20.27;;;;;;;;;;8330106;28;20049;-82
2022/03/30 04:37:39;;;;;;;58.20;26.02;;;;;;;;;;8330397;28;20488;-85
2022/03/30 04:41:41;;;;;;;50.42;20.75;;;;;;;;;;8330319;28;20394;-84
2022/03/30 04:45:44;;;;;;;44.63;18.50;;;;;;;;;;8329785;28;20497;-84
2022/03/30 04:49:46;;;;;;;39.50;16.30;;;;;;;;;;8330239;28;20052;-86
2022/03/30 04:53:50;;;;;;;45.88;18.20;;;;;;;;;;8329816;28;20060;-85
2022/03/30 04:57:53;;;;;;;44.30;18.60;;;;;;;;;;8329684;28;20091;-84
2022/03/30 05:01:56;;;;;;;43.08;18.73;;;;;;;;;;8329518;28;20041;-83
2022/03/30 05:05:59;;;;;;;36.92;16.45;;;;;;;;;;8329456;28;20103;-85
2022/03/30 05:10:05;;;;;;;46.22;17.92;;;;;;;;;;8331930;28;20095;-85
2022/03/30 05:14:08;;;;;;;41.80;18.48;;;;;;;;;;8335303;28;20048;-83
2022/03/30 05:18:11;;;;;;;42.22;17.83;;;;;;;;;;8335147;28;20132;-83
2022/03/30 05:22:14;;;;;;;43.08;17.63;;;;;;;;;;8335070;28;20124;-83
2022/03/30 05:26:18;;;;;;;46.25;18.05;;;;;;;;;;8334734;28;20057;-83
2022/03/30 05:30:21;;;;;;;39.97;17.50;;;;;;;;;;8334169;28;20056;-84
2022/03/30 05:34:24;;;;;;;51.20;20.10;;;;;;;;;;8334682;28;20052;-82
2022/03/30 05:38:27;;;;;;;46.92;18.02;;;;;;;;;;8334627;28;20069;-84
2022/03/30 05:42:32;;;;;;;56.38;21.17;;;;;;;;;;8317877;28;20046;-82
2022/03/30 05:46:36;;;;;;;65.80;26.33;;;;;;;;;;8301288;28;20057;-82
2022/03/30 05:50:39;;;;;;;77.95;33.92;;;;;;;;;;8343852;28;20049;-84
2022/03/30 05:54:42;;;;;;;87.70;33.88;;;;;;;;;;8334081;28;20128;-83
2022/03/30 05:58:46;;;;;;;57.78;26.42;;;;;;;;;;8301492;28;20111;-84
2022/03/30 06:02:48;;;;;;;66.25;27.58;;;;;;;;;;8298505;28;20046;-82
2022/03/30 06:06:52;;;;;;;77.50;31.88;;;;;;;;;;8299479;28;20096;-82
2022/03/30 06:10:54;;;;;;;60.88;25.15;;;;;;;;;;8300363;28;20074;-84
2022/03/30 06:14:59;;;;;;;49.00;20.20;;;;;;;;;;8300689;28;20050;-82
2022/03/30 06:19:02;;;;;;;47.80;21.42;;;;;;;;;;8308866;28;20100;-83
2022/03/30 06:23:05;;;;;;;49.08;21.23;;;;;;;;;;8294389;28;20077;-89
2022/03/30 06:27:11;;;;;;;45.40;20.77;;;;;;;;;;8316111;28;20048;-82
2022/03/30 06:31:25;;;;;;;53.60;21.70;;;;;;;;;;8325599;28;20038;-83
2022/03/30 06:35:28;;;;;;;46.72;20.85;;;;;;;;;;8322187;28;20125;-81
2022/03/30 06:39:34;;;;;;;50.45;20.95;;;;;;;;;;8324297;28;20061;-82
2022/03/30 06:43:42;;;;;;;44.10;19.70;;;;;;;;;;8332498;28;20478;-82
2022/03/30 06:47:48;;;;;;;45.20;20.77;;;;;;;;;;8324307;28;20122;-82
2022/03/30 06:51:52;;;;;;;45.72;20.17;;;;;;;;;;8341942;28;20046;-82
2022/03/30 06:55:59;;;;;;;45.45;21.13;;;;;;;;;;8345357;28;20049;-82
2022/03/30 07:00:06;;;;;;;41.75;20.40;;;;;;;;;;8331462;28;20045;-84
2022/03/30 07:04:17;;;;;;;44.60;21.58;;;;;;;;;;8325402;28;20060;-85
2022/03/30 07:12:41;;;;;;;46.88;21.15;;;;;;;;;;8335712;28;20045;-82
2022/03/30 07:16:45;;;;;;;37.80;19.27;;;;;;;;;;8364050;28;20049;-82
2022/03/30 07:20:50;;;;;;;44.42;20.15;;;;;;;;;;8364000;28;20055;-84
2022/03/30 07:24:54;;;;;;;40.72;20.88;;;;;;;;;;8363232;28;20107;-83
2022/03/30 07:28:59;;;;;;;44.58;19.95;;;;;;;;;;8353269;28;20461;-81
2022/03/30 07:33:03;;;;;;;39.47;19.67;;;;;;;;;;8322916;28;20049;-81
2022/03/30 07:37:09;;;;;;;42.00;19.67;;;;;;;;;;8318444;28;20103;-82
2022/03/30 07:41:12;;;;;;;39.97;18.60;;;;;;;;;;8330479;28;20080;-85
2022/03/30 07:45:16;;;;;;;35.88;17.42;;;;;;;;;;8332616;28;20129;-81
2022/03/30 07:49:19;;;;;;;38.05;18.08;;;;;;;;;;8347800;28;20092;-83
2022/03/30 07:53:23;;;;;;;41.60;20.23;;;;;;;;;;8348208;28;20497;-83
2022/03/30 07:57:27;;;;;;;39.13;19.23;;;;;;;;;;8330397;28;20125;-82
2022/03/30 08:01:30;;;;;;;35.13;17.80;;;;;;;;;;8328321;28;20116;-82
2022/03/30 08:05:32;;;;;;;38.25;18.77;;;;;;;;;;8331998;28;20583;-81
2022/03/30 08:09:37;;;;;;;44.97;22.20;;;;;;;;;;8334415;28;20045;-86
2022/03/30 08:13:39;;;;;;;35.85;18.10;;;;;;;;;;8323166;28;20129;-85
2022/03/30 08:17:42;;;;;;;32.90;13.68;;;;;;;;;;8297372;28;20046;-82
2022/03/30 08:26:06;;;;;;;26.02;11.93;;;;;;;;;;8306897;28;20054;-82
2022/03/30 08:30:09;;;;;;;23.25;11.20;;;;;;;;;;8327946;28;20045;-82
2022/03/30 08:34:13;;;;;;;23.90;7.78;;;;;;;;;;8312253;28;20046;-85
2022/03/30 08:38:17;;;;;;;21.83;11.93;;;;;;;;;;8320101;28;20042;-84
2022/03/30 08:42:24;;;;;;;17.08;7.97;;;;;;;;;;8326740;28;20098;-82
2022/03/30 08:46:28;;;;;;;13.98;6.57;;;;;;;;;;8332932;28;20042;-82
2022/03/30 08:50:32;;;;;;;13.13;6.50;;;;;;;;;;8327897;28;20490;-81
2022/03/30 08:54:37;;;;;;;15.75;8.18;;;;;;;;;;8340500;28;20053;-83
2022/03/30 08:58:42;;;;;;;14.65;6.88;;;;;;;;;;8341711;28;20057;-83
2022/03/30 09:02:48;;;;;;;17.17;7.10;;;;;;;;;;8343312;28;20133;-82
2022/03/30 09:06:57;;;;;;;15.02;6.78;;;;;;;;;;8311977;28;20053;-86
2022/03/30 09:11:05;;;;;;;15.90;6.65;;;;;;;;;;8314315;28;20057;-81
2022/03/30 09:15:12;;;;;;;14.07;5.97;;;;;;;;;;8327681;28;20046;-82
2022/03/30 09:19:18;;;;;;;14.55;6.93;;;;;;;;;;8302167;28;20069;-81
2022/03/30 09:23:21;;;;;;;18.58;8.15;;;;;;;;;;8320624;28;20058;-82
2022/03/30 09:27:31;;;;;;;15.73;6.72;;;;;;;;;;8302091;28;20050;-81
2022/03/30 09:31:46;;;;;;;12.55;6.43;;;;;;;;;;8302950;28;20132;-81
2022/03/30 09:35:58;;;;;;;15.50;6.97;;;;;;;;;;8329778;28;20557;-82
2022/03/30 09:40:11;;;;;;;18.25;7.40;;;;;;;;;;8341391;28;20048;-81
2022/03/30 09:44:17;;;;;;;13.82;6.28;;;;;;;;;;8340160;28;20041;-82
2022/03/30 09:48:28;;;;;;;13.35;5.82;;;;;;;;;;8336231;28;20067;-81
2022/03/30 09:52:35;;;;;;;14.65;6.35;;;;;;;;;;8336708;28;20044;-82
2022/03/30 09:56:43;;;;;;;12.30;5.80;;;;;;;;;;8334943;28;20120;-82
2022/03/30 10:01:03;;;;;;;10.25;5.47;;;;;;;;;;8336071;28;20064;-82
2022/03/30 10:05:13;;;;;;;11.77;5.70;;;;;;;;;;8336031;28;20041;-81
2022/03/30 10:09:20;;;;;;;10.45;5.13;;;;;;;;;;8317716;28;20099;-83
2022/03/30 10:13:26;;;;;;;11.45;4.97;;;;;;;;;;8335622;28;20076;-82
2022/03/30 10:17:30;;;;;;;11.70;5.32;;;;;;;;;;8336009;28;20069;-86
2022/03/30 10:21:46;;;;;;;11.95;5.13;;;;;;;;;;8335383;28;20042;-86
2022/03/30 10:26:14;;;;;;;9.88;5.40;;;;;;;;;;8334809;28;20054;-86
2022/03/30 10:30:28;;;;;;;9.52;5.20;;;;;;;;;;8316620;28;20057;-84
2022/03/30 10:34:34;;;;;;;10.52;5.72;;;;;;;;;;8317140;28;20071;-88
2022/03/30 10:39:14;;;;;;;14.43;6.93;;;;;;;;;;8334473;28;20045;-87
2022/03/30 10:43:27;;;;;;;16.27;8.85;;;;;;;;;;8334411;28;20041;-89
2022/03/30 10:47:34;;;;;;;10.93;5.82;;;;;;;;;;8334715;28;20100;-88
2022/03/30 10:51:39;;;;;;;11.95;5.70;;;;;;;;;;8333891;28;20048;-89
2022/03/30 10:55:46;;;;;;;12.93;5.88;;;;;;;;;;8316783;28;20045;-87
2022/03/30 11:00:10;;;;;;;14.82;6.32;;;;;;;;;;8333673;28;20041;-87
2022/03/30 11:04:23;;;;;;;13.50;5.88;;;;;;;;;;8316818;28;20071;-87
2022/03/30 11:08:59;;;;;;;13.00;6.22;;;;;;;;;;8334002;28;20041;-88
2022/03/30 11:13:14;;;;;;;10.10;5.63;;;;;;;;;;8291461;28;20053;-89
2022/03/30 11:17:35;;;;;;;11.77;6.10;;;;;;;;;;8333832;28;20045;-87
2022/03/30 11:21:42;;;;;;;12.83;6.70;;;;;;;;;;8333301;28;20041;-81
2022/03/30 11:25:57;;;;;;;14.02;7.20;;;;;;;;;;8333042;28;20295;-84
2022/03/30 11:30:17;;;;;;;14.75;5.93;;;;;;;;;;8315232;28;20069;-82
2022/03/30 11:34:34;;;;;;;16.17;7.90;;;;;;;;;;8315360;28;20072;-81
2022/03/30 11:38:41;;;;;;;23.30;11.30;;;;;;;;;;8332647;28;20091;-89
2022/03/30 11:42:52;;;;;;;20.77;12.23;;;;;;;;;;8333084;28;20049;-82
2022/03/30 11:47:13;;;;;;;20.63;9.18;;;;;;;;;;8332823;28;20065;-82
2022/03/30 11:51:26;;;;;;;14.13;7.97;;;;;;;;;;8333734;28;20064;-81
2022/03/30 11:55:40;;;;;;;19.98;8.52;;;;;;;;;;8333669;28;20046;-83
2022/03/30 11:59:45;;;;;;;14.80;7.90;;;;;;;;;;8332695;28;20045;-89
2022/03/30 12:03:56;;;;;;;16.05;7.72;;;;;;;;;;8332029;28;20052;-81
2022/03/30 12:08:03;;;;;;;12.23;7.03;;;;;;;;;;8314276;28;20068;-89
2022/03/30 12:12:08;;;;;;;15.93;7.60;;;;;;;;;;8332509;28;20046;-82
2022/03/30 12:16:15;;;;;;;13.63;6.93;;;;;;;;;;8332856;28;20076;-82
2022/03/30 12:20:31;;;;;;;20.90;9.32;;;;;;;;;;8336673;28;20041;-82
2022/03/30 12:24:36;;;;;;;16.77;8.18;;;;;;;;;;8328959;28;20636;-83
2022/03/30 12:28:40;;;;;;;14.98;7.30;;;;;;;;;;8320891;28;20053;-83
2022/03/30 12:32:45;;;;;;;12.82;7.28;;;;;;;;;;8314949;28;20042;-85
2022/03/30 12:36:58;;;;;;;15.85;7.63;;;;;;;;;;8315912;28;20053;-81
2022/03/30 12:41:01;;;;;;;;;;;;;;;;;;8324881;28;20133;-81
2022/03/30 12:45:10;;;;;;;13.48;8.13;;;;;;;;;;8342941;28;19937;-81
2022/03/30 12:49:13;;;;;;;15.98;7.55;;;;;;;;;;8354086;28;20052;-81
2022/03/30 12:53:25;;;;;;;19.38;9.18;;;;;;;;;;8348109;28;20090;-81
2022/03/30 12:57:35;;;;;;;;;;;;;;;;;;8350915;28;20071;-82
2022/03/30 13:01:45;;;;;;;12.88;7.13;;;;;;;;;;8335926;28;20440;-80
2022/03/30 13:05:50;;;;;;;14.20;7.88;;;;;;;;;;8331176;28;20049;-81
2022/03/30 13:10:12;;;;;;;14.55;7.70;;;;;;;;;;8325006;28;20527;-81
2022/03/30 13:14:16;;;;;;;;;;;;;;;;;;8303344;28;20456;-81
2022/03/30 13:18:28;;;;;;;16.88;8.35;;;;;;;;;;8302289;28;19921;-81
2022/03/30 13:22:51;;;;;;;16.23;9.45;;;;;;;;;;8301469;28;20045;-81
2022/03/30 13:27:05;;;;;;;16.35;7.95;;;;;;;;;;8306482;28;20042;-81
2022/03/30 13:31:28;;;;;;;15.40;7.78;;;;;;;;;;8327919;28;20480;-80
2022/03/30 13:35:37;;;;;;;14.68;7.80;;;;;;;;;;8330398;28;20065;-81
2022/03/30 13:39:44;;;;;;;15.65;7.90;;;;;;;;;;8308914;28;20049;-81
2022/03/30 13:43:54;;;;;;;19.25;8.65;;;;;;;;;;8301372;28;20042;-82
2022/03/30 13:47:59;;;;;;;15.75;7.47;;;;;;;;;;8302076;28;20132;-81
2022/03/30 13:52:05;;;;;;;25.70;13.85;;;;;;;;;;8334100;28;20136;-88
2022/03/30 13:56:13;;;;;;;18.80;8.82;;;;;;;;;;8334226;28;20065;-81
2022/03/30 14:00:19;;;;;;;23.90;8.82;;;;;;;;;;8330097;28;20048;-81
2022/03/30 14:04:24;;;;;;;14.45;7.18;;;;;;;;;;8309872;28;20507;-89
2022/03/30 14:08:29;;;;;;;15.70;8.57;;;;;;;;;;8313722;28;20117;-81
2022/03/30 14:12:33;;;;;;;14.75;7.03;;;;;;;;;;8319521;28;20065;-82
2022/03/30 14:16:38;;;;;;;13.60;7.47;;;;;;;;;;8332726;28;20042;-81
2022/03/30 14:20:41;;;;;;;12.45;7.30;;;;;;;;;;8329066;28;20045;-83
2022/03/30 14:24:44;;;;;;;13.85;8.23;;;;;;;;;;8331948;28;20064;-81
2022/03/30 14:28:47;;;;;;;17.83;8.40;;;;;;;;;;8333079;28;20042;-80
2022/03/30 14:32:52;;;;;;;15.30;7.82;;;;;;;;;;8332036;28;20041;-81
2022/03/30 14:36:55;;;;;;;12.32;7.53;;;;;;;;;;8332738;28;20128;-83
2022/03/30 14:40:58;;;;;;;20.98;8.23;;;;;;;;;;8332912;28;20072;-81
2022/03/30 14:45:01;;;;;;;18.02;8.00;;;;;;;;;;8332685;28;20045;-82
2022/03/30 14:49:06;;;;;;;19.17;7.90;;;;;;;;;;8332451;28;20053;-81
2022/03/30 14:53:09;;;;;;;18.33;8.23;;;;;;;;;;8339659;28;20091;-81
2022/03/30 14:57:13;;;;;;;15.43;7.78;;;;;;;;;;8365156;28;20060;-81
2022/03/30 15:01:17;;;;;;;19.73;10.45;;;;;;;;;;8365131;28;20053;-81
2022/03/30 15:05:22;;;;;;;16.95;7.38;;;;;;;;;;8339310;28;20136;-81
2022/03/30 15:09:25;;;;;;;17.40;7.85;;;;;;;;;;8331740;28;20057;-81
2022/03/30 15:13:28;;;;;;;14.30;7.38;;;;;;;;;;8331840;28;20045;-82
2022/03/30 15:17:35;;;;;;;18.33;7.53;;;;;;;;;;8331744;28;20050;-81
2022/03/30 15:21:41;;;;;;;18.42;6.88;;;;;;;;;;8332200;28;20128;-82
2022/03/30 15:25:44;;;;;;;12.93;7.03;;;;;;;;;;8331383;28;20481;-82
2022/03/30 15:29:48;;;;;;;15.25;7.65;;;;;;;;;;8331268;28;20057;-81
2022/03/30 15:33:51;;;;;;;15.15;6.43;;;;;;;;;;8331722;28;20477;-81
2022/03/30 15:37:56;;;;;;;17.92;7.43;;;;;;;;;;8331231;28;20045;-81
2022/03/30 15:41:59;;;;;;;13.50;6.80;;;;;;;;;;8331472;28;20049;-81
2022/03/30 15:46:03;;;;;;;13.75;6.55;;;;;;;;;;8330808;28;20045;-81
2022/03/30 15:50:06;;;;;;;17.63;6.90;;;;;;;;;;8331333;28;20111;-81
2022/03/30 15:54:11;;;;;;;14.05;6.72;;;;;;;;;;8329897;28;20054;-81
2022/03/30 15:58:14;;;;;;;16.15;7.47;;;;;;;;;;8330528;28;20124;-81
2022/03/30 16:02:18;;;;;;;15.48;6.85;;;;;;;;;;8330474;28;20135;-81
2022/03/30 16:06:21;;;;;;;16.02;7.00;;;;;;;;;;8331029;28;20096;-81
2022/03/30 16:10:26;;;;;;;16.40;7.28;;;;;;;;;;8330423;28;20045;-81
2022/03/30 16:14:29;;;;;;;16.05;7.22;;;;;;;;;;8330945;28;20535;-82
2022/03/30 16:18:36;;;;;;;13.23;6.75;;;;;;;;;;8330732;28;20092;-80
2022/03/30 16:22:40;;;;;;;17.08;7.03;;;;;;;;;;8330677;28;20550;-81
2022/03/30 16:26:47;;;;;;;17.83;9.23;;;;;;;;;;8330235;28;20045;-82
2022/03/30 16:30:51;;;;;;;19.60;8.25;;;;;;;;;;8330249;28;20439;-80
2022/03/30 16:34:56;;;;;;;21.70;11.27;;;;;;;;;;8330160;28;20061;-80
2022/03/30 16:39:00;;;;;;;21.88;10.95;;;;;;;;;;8329964;28;20056;-81
2022/03/30 16:43:06;;;;;;;63.20;27.00;;;;;;;;;;8320904;28;20045;-81
2022/03/30 16:47:09;;;;;;;37.70;15.27;;;;;;;;;;8331215;28;20086;-80
2022/03/30 16:51:13;;;;;;;17.15;7.28;;;;;;;;;;8329857;28;20041;-81
2022/03/30 16:55:17;;;;;;;46.17;18.73;;;;;;;;;;8329839;28;20057;-82
2022/03/30 16:59:22;;;;;;;14.68;5.90;;;;;;;;;;8324676;28;20054;-79
2022/03/30 17:03:26;;;;;;;22.45;9.45;;;;;;;;;;8325860;28;20067;-79
2022/03/30 17:07:30;;;;;;;20.67;8.15;;;;;;;;;;8310629;28;20425;-81
2022/03/30 17:11:34;;;;;;;26.15;11.68;;;;;;;;;;8343040;28;20038;-80
2022/03/30 17:15:39;;;;;;;16.20;6.63;;;;;;;;;;8368765;28;20055;-82
2022/03/30 17:19:45;;;;;;;16.50;8.25;;;;;;;;;;8368634;28;20063;-80
2022/03/30 17:23:50;;;;;;;58.80;22.17;;;;;;;;;;8368495;28;20061;-81
2022/03/30 17:27:53;;;;;;;18.55;8.02;;;;;;;;;;8357638;28;20055;-80
2022/03/30 17:31:58;;;;;;;14.82;7.47;;;;;;;;;;8322954;28;20049;-80
2022/03/30 17:36:02;;;;;;;160.45;52.50;;;;;;;;;;8325444;28;20053;-82
2022/03/30 17:40:19;;;;;;;32.75;11.73;;;;;;;;;;8321982;28;20061;-81
2022/03/30 17:44:44;;;;;;;17.77;7.97;;;;;;;;;;8336414;28;20044;-81
2022/03/30 17:53:29;;;;;;;83.82;30.55;;;;;;;;;;8304615;28;20044;-84
2022/03/30 17:57:41;;;;;;;95.72;26.67;;;;;;;;;;8301502;28;20052;-82
2022/03/30 18:01:54;;;;;;;222.68;57.20;;;;;;;;;;8301111;28;20037;-82
2022/03/30 18:06:03;;;;;;;224.27;56.78;;;;;;;;;;8301616;28;20042;-81
2022/03/30 18:10:12;;;;;;;50.75;15.57;;;;;;;;;;8322746;28;20103;-81
2022/03/30 18:14:20;;;;;;;131.18;32.72;;;;;;;;;;8333504;28;20412;-81
2022/03/30 18:18:25;;;;;;;50.20;15.23;;;;;;;;;;8333956;28;20053;-83
2022/03/30 18:22:30;;;;;;;158.50;49.53;;;;;;;;;;8333733;28;20080;-83
2022/03/30 18:26:32;;;;;;;210.13;53.08;;;;;;;;;;8333383;28;20137;-81
2022/03/30 18:30:37;;;;;;;46.30;16.50;;;;;;;;;;8333641;28;20061;-85
2022/03/30 18:34:40;;;;;;;176.20;40.53;;;;;;;;;;8324284;28;20541;-84
2022/03/30 18:38:45;;;;;;;155.45;39.88;;;;;;;;;;8322414;28;20049;-83
2022/03/30 18:42:50;;;;;;;160.05;42.28;;;;;;;;;;8322339;28;20480;-82
2022/03/30 18:47:08;;;;;;;79.65;23.77;;;;;;;;;;8332364;28;20041;-80
2022/03/30 18:52:04;;;;;;;136.63;42.13;;;;;;;;;;8332488;28;20041;-80
2022/03/30 18:56:10;;;;;;;30.35;10.98;;;;;;;;;;8324531;28;20049;-81
2022/03/30 19:00:17;;;;;;;33.75;13.90;;;;;;;;;;8332201;28;20050;-82
2022/03/30 19:04:21;;;;;;;49.10;16.63;;;;;;;;;;8331774;28;20037;-79
2022/03/30 19:08:26;;;;;;;24.17;10.20;;;;;;;;;;8332007;28;20052;-81
2022/03/30 19:12:33;;;;;;;34.20;13.48;;;;;;;;;;8331718;28;20607;-80
2022/03/30 19:16:37;;;;;;;65.63;22.65;;;;;;;;;;8331659;28;20046;-83
2022/03/30 19:20:46;;;;;;;71.88;25.65;;;;;;;;;;8331560;28;20041;-79
2022/03/30 19:24:51;;;;;;;18.00;8.05;;;;;;;;;;8330728;28;20053;-80
2022/03/30 19:28:58;;;;;;;60.55;20.95;;;;;;;;;;8330654;28;20049;-80
2022/03/30 19:33:01;;;;;;;19.40;8.32;;;;;;;;;;8331786;28;20140;-83
2022/03/30 19:37:07;;;;;;;21.63;9.07;;;;;;;;;;8329887;28;20132;-80
2022/03/30 19:41:11;;;;;;;22.42;9.48;;;;;;;;;;8327790;28;20045;-81
2022/03/30 19:45:20;;;;;;;17.08;7.93;;;;;;;;;;8330071;28;20041;-80
2022/03/30 19:49:24;;;;;;;16.98;8.35;;;;;;;;;;8312576;28;20480;-81
2022/03/30 19:53:29;;;;;;;23.67;10.73;;;;;;;;;;8316385;28;20041;-86
2022/03/30 19:57:33;;;;;;;19.80;8.30;;;;;;;;;;8320049;28;20092;-82
2022/03/30 20:01:38;;;;;;;91.07;24.05;;;;;;;;;;8297258;28;20405;-82
2022/03/30 20:05:43;;;;;;;21.02;8.80;;;;;;;;;;8298485;28;20141;-82
2022/03/30 20:09:46;;;;;;;55.58;21.73;;;;;;;;;;8298426;28;20401;-82
2022/03/30 20:13:49;;;;;;;22.00;9.88;;;;;;;;;;8298007;28;20049;-80
2022/03/30 20:17:55;;;;;;;25.10;8.68;;;;;;;;;;8297868;28;20045;-79
2022/03/30 20:21:59;;;;;;;31.27;12.82;;;;;;;;;;8297850;28;20050;-80
2022/03/30 20:26:04;;;;;;;18.52;8.48;;;;;;;;;;8297690;28;20409;-81
2022/03/30 20:30:10;;;;;;;20.45;8.45;;;;;;;;;;8297633;28;20045;-82
2022/03/30 20:34:15;;;;;;;20.98;9.73;;;;;;;;;;8297633;28;20042;-81
2022/03/30 20:38:18;;;;;;;18.50;9.05;;;;;;;;;;8297566;28;20089;-82
2022/03/30 20:42:21;;;;;;;19.90;10.07;;;;;;;;;;8303742;28;20049;-80
2022/03/30 20:46:24;;;;;;;20.63;8.80;;;;;;;;;;8303843;28;20042;-80
2022/03/30 20:50:29;;;;;;;23.00;10.73;;;;;;;;;;8303545;28;20198;-82
2022/03/30 20:54:31;;;;;;;25.48;10.63;;;;;;;;;;8304015;28;20095;-83
2022/03/30 20:58:35;;;;;;;23.60;10.00;;;;;;;;;;8303376;28;20092;-82
2022/03/30 21:02:37;;;;;;;21.27;10.57;;;;;;;;;;8303606;28;20046;-80
2022/03/30 21:06:41;;;;;;;22.05;9.25;;;;;;;;;;8303475;28;20073;-80
2022/03/30 21:10:44;;;;;;;22.17;10.13;;;;;;;;;;8318001;28;20422;-80
2022/03/30 21:14:47;;;;;;;27.85;11.70;;;;;;;;;;8332484;28;20045;-82
2022/03/30 21:18:50;;;;;;;36.35;12.85;;;;;;;;;;8312168;28;20042;-85
2022/03/30 21:22:54;;;;;;;19.60;10.43;;;;;;;;;;8302451;28;20527;-81
2022/03/30 21:26:57;;;;;;;23.25;9.45;;;;;;;;;;8302950;28;20046;-80
2022/03/30 21:31:00;;;;;;;17.55;9.27;;;;;;;;;;8302302;28;20046;-81
2022/03/30 21:35:03;;;;;;;37.75;16.23;;;;;;;;;;8302369;28;20050;-80
2022/03/30 21:39:07;;;;;;;20.77;9.93;;;;;;;;;;8316338;28;20049;-81
2022/03/30 21:43:10;;;;;;;22.80;10.85;;;;;;;;;;8334763;28;20053;-81
2022/03/30 21:47:12;;;;;;;37.63;15.02;;;;;;;;;;8334666;28;20055;-81
2022/03/30 21:51:15;;;;;;;38.35;15.00;;;;;;;;;;8333408;28;20412;-80
2022/03/30 21:55:19;;;;;;;22.00;10.45;;;;;;;;;;8334835;28;20132;-80
2022/03/30 21:59:22;;;;;;;19.38;9.82;;;;;;;;;;8319726;28;20108;-81
2022/03/30 22:03:25;;;;;;;28.58;12.88;;;;;;;;;;8301471;28;20046;-81
2022/03/30 22:07:27;;;;;;;17.58;9.18;;;;;;;;;;8301306;28;20050;-79
2022/03/30 22:11:31;;;;;;;16.83;8.98;;;;;;;;;;8300959;28;20062;-80
2022/03/30 22:15:36;;;;;;;19.60;9.82;;;;;;;;;;8300897;28;20053;-80
2022/03/30 22:19:38;;;;;;;19.52;9.27;;;;;;;;;;8300944;28;20052;-81
2022/03/30 22:23:41;;;;;;;20.13;9.23;;;;;;;;;;8300700;28;20050;-80
2022/03/30 22:27:45;;;;;;;15.45;9.23;;;;;;;;;;8300608;28;20390;-81
2022/03/30 22:36:07;;;;;;;22.20;11.93;;;;;;;;;;8300484;28;20042;-80
2022/03/30 22:40:11;;;;;;;17.88;9.25;;;;;;;;;;8300676;28;20050;-80
2022/03/30 22:44:17;;;;;;;16.23;9.23;;;;;;;;;;8300106;28;20133;-80
2022/03/30 22:48:20;;;;;;;19.50;10.88;;;;;;;;;;8299925;28;20060;-81
2022/03/30 22:52:23;;;;;;;17.55;10.38;;;;;;;;;;8301775;28;20482;-79
2022/03/30 22:56:25;;;;;;;17.30;8.32;;;;;;;;;;8365835;28;20404;-80
2022/03/30 23:00:30;;;;;;;22.88;10.80;;;;;;;;;;8365716;28;20053;-80
2022/03/30 23:04:32;;;;;;;17.13;9.05;;;;;;;;;;8345815;28;20069;-81
2022/03/30 23:08:34;;;;;;;16.77;9.00;;;;;;;;;;8332239;28;20045;-81
2022/03/30 23:12:37;;;;;;;15.23;9.13;;;;;;;;;;8312093;28;20533;-80
2022/03/30 23:16:42;;;;;;;12.13;8.05;;;;;;;;;;8299294;28;20049;-81
2022/03/30 23:20:45;;;;;;;18.33;9.48;;;;;;;;;;8299448;28;20057;-81
2022/03/30 23:24:47;;;;;;;15.50;8.20;;;;;;;;;;8329502;28;20381;-81
2022/03/30 23:28:49;;;;;;;;;;;;;;;;;;8311488;28;20053;-80
2022/03/30 23:32:54;;;;;;;10.65;6.63;;;;;;;;;;8299159;28;19982;-83
2022/03/30 23:36:56;;;;;;;12.55;6.60;;;;;;;;;;8299444;28;20477;-83
2022/03/30 23:40:59;;;;;;;11.23;6.28;;;;;;;;;;8298535;28;20137;-82
2022/03/30 23:45:02;;;;;;;12.98;6.63;;;;;;;;;;8298937;28;20045;-84
2022/03/30 23:49:06;;;;;;;13.52;7.25;;;;;;;;;;8298372;28;20042;-85
2022/03/30 23:53:08;;;;;;;10.52;6.47;;;;;;;;;;8298308;28;20045;-84
